createdAt,value
2023-04-03T00:01:28.667Z,71.07
2023-04-03T00:03:00.348Z,71.17
2023-04-03T00:04:31.960Z,70.95
2023-04-03T00:06:04.722Z,71.05
2023-04-03T00:07:36.384Z,70.96
2023-04-03T00:09:09.463Z,71.64
2023-04-03T00:10:42.427Z,71.60
2023-04-03T00:12:14.092Z,71.06
2023-04-03T00:13:45.757Z,70.81
2023-04-03T00:15:17.925Z,71.41
2023-04-03T00:16:49.511Z,70.65
2023-04-03T00:18:21.762Z,70.72
2023-04-03T00:19:53.373Z,70.19
2023-04-03T00:21:24.937Z,69.88
2023-04-03T00:22:56.600Z,70.36
2023-04-03T00:24:28.327Z,70.50
2023-04-03T00:25:59.911Z,70.32
2023-04-03T00:27:31.439Z,70.19
2023-04-03T00:29:03.148Z,70.66
2023-04-03T00:30:35.111Z,70.35
2023-04-03T00:32:06.794Z,70.73
2023-04-03T00:33:38.374Z,70.32
2023-04-03T00:35:10.342Z,70.58
2023-04-03T00:36:42.095Z,70.47
2023-04-03T00:38:13.797Z,70.80
2023-04-03T00:39:45.451Z,70.00
2023-04-03T00:41:16.985Z,69.82
2023-04-03T00:42:52.397Z,70.23
2023-04-03T00:44:44.745Z,70.13
2023-04-03T00:46:16.671Z,70.21
2023-04-03T00:47:48.568Z,69.86
2023-04-03T00:49:20.843Z,69.04
2023-04-03T00:50:53.510Z,69.99
2023-04-03T00:52:30.607Z,70.23
2023-04-03T00:54:06.427Z,69.89
2023-04-03T00:55:39.481Z,70.07
2023-04-03T00:57:12.382Z,70.41
2023-04-03T00:58:57.388Z,69.96
2023-04-03T01:00:29.385Z,69.89
2023-04-03T01:02:01.806Z,70.52
2023-04-03T01:03:33.752Z,70.35
2023-04-03T01:05:08.628Z,69.83
2023-04-03T01:06:40.241Z,69.50
2023-04-03T01:08:13.445Z,69.90
2023-04-03T01:09:46.928Z,69.69
2023-04-03T01:11:19.029Z,69.39
2023-04-03T01:12:51.685Z,69.37
2023-04-03T01:14:23.388Z,69.90
2023-04-03T01:15:55.418Z,70.21
2023-04-03T01:17:42.256Z,70.40
2023-04-03T01:19:17.475Z,70.14
2023-04-03T01:21:15.126Z,69.97
2023-04-03T01:23:14.585Z,69.34
2023-04-03T01:24:48.278Z,69.82
2023-04-03T01:26:20.929Z,69.61
2023-04-03T01:27:52.684Z,70.00
2023-04-03T01:29:24.335Z,70.08
2023-04-03T01:31:19.492Z,70.55
2023-04-03T01:32:52.391Z,69.62
2023-04-03T01:34:25.105Z,69.51
2023-04-03T01:35:57.283Z,69.70
2023-04-03T01:37:28.889Z,70.12
2023-04-03T01:39:01.260Z,69.83
2023-04-03T01:40:34.005Z,69.56
2023-04-03T01:42:06.586Z,69.59
2023-04-03T01:43:43.598Z,69.61
2023-04-03T01:45:15.840Z,69.50
2023-04-03T01:46:47.683Z,69.06
2023-04-03T01:48:19.414Z,69.92
2023-04-03T01:49:50.937Z,70.16
2023-04-03T01:51:23.193Z,69.66
2023-04-03T01:52:55.227Z,69.98
2023-04-03T01:54:26.753Z,69.75
2023-04-03T01:55:58.654Z,69.40
2023-04-03T01:57:30.609Z,69.19
2023-04-03T01:59:02.351Z,69.30
2023-04-03T02:00:34.701Z,69.84
2023-04-03T02:02:06.929Z,69.59
2023-04-03T02:03:38.761Z,70.17
2023-04-03T02:05:10.395Z,70.14
2023-04-03T02:06:42.120Z,70.73
2023-04-03T02:08:14.035Z,70.66
2023-04-03T02:09:45.780Z,70.45
2023-04-03T02:11:17.333Z,70.35
2023-04-03T02:12:48.893Z,69.85
2023-04-03T02:14:21.225Z,69.57
2023-04-03T02:15:52.755Z,70.17
2023-04-03T02:17:24.351Z,70.63
2023-04-03T02:18:56.016Z,69.78
2023-04-03T02:20:27.747Z,69.97
2023-04-03T02:21:59.292Z,70.09
2023-04-03T02:23:30.880Z,70.67
2023-04-03T02:25:02.642Z,70.18
2023-04-03T02:26:34.278Z,70.41
2023-04-03T02:28:06.343Z,69.85
2023-04-03T02:29:37.943Z,69.88
2023-04-03T02:31:11.113Z,69.41
2023-04-03T02:32:44.806Z,69.52
2023-04-03T02:34:16.483Z,69.63
2023-04-03T02:35:54.079Z,70.00
2023-04-03T02:37:26.767Z,68.99
2023-04-03T02:38:59.205Z,69.76
2023-04-03T02:40:30.866Z,68.59
2023-04-03T02:42:02.628Z,68.72
2023-04-03T02:43:34.698Z,68.23
2023-04-03T02:45:06.823Z,68.58
2023-04-03T02:46:38.647Z,68.61
2023-04-03T02:48:10.263Z,68.16
2023-04-03T02:49:41.809Z,68.45
2023-04-03T02:51:13.444Z,68.04
2023-04-03T02:52:45.136Z,67.82
2023-04-03T02:54:17.010Z,68.50
2023-04-03T02:55:52.947Z,67.63
2023-04-03T02:57:24.773Z,68.13
2023-04-03T02:58:56.419Z,68.19
2023-04-03T03:00:28.437Z,67.68
2023-04-03T03:02:00.339Z,68.36
2023-04-03T03:03:31.888Z,67.92
2023-04-03T03:05:03.807Z,68.58
2023-04-03T03:06:35.440Z,69.00
2023-04-03T03:08:07.130Z,68.51
2023-04-03T03:09:39.042Z,68.49
2023-04-03T03:11:11.011Z,68.58
2023-04-03T03:12:42.919Z,68.26
2023-04-03T03:14:14.516Z,68.31
2023-04-03T03:15:46.113Z,68.75
2023-04-03T03:17:18.192Z,69.52
2023-04-03T03:18:49.762Z,68.54
2023-04-03T03:20:21.828Z,68.19
2023-04-03T03:21:53.613Z,68.72
2023-04-03T03:23:27.056Z,69.07
2023-04-03T03:24:58.702Z,68.69
2023-04-03T03:26:30.326Z,68.94
2023-04-03T03:28:01.902Z,69.18
2023-04-03T03:29:33.490Z,69.38
2023-04-03T03:31:05.590Z,69.21
2023-04-03T03:32:37.718Z,69.19
2023-04-03T03:34:09.440Z,68.90
2023-04-03T03:35:41.321Z,69.26
2023-04-03T03:37:13.465Z,68.76
2023-04-03T03:38:45.051Z,68.91
2023-04-03T03:40:16.760Z,68.39
2023-04-03T03:41:50.784Z,68.71
2023-04-03T03:43:22.459Z,69.14
2023-04-03T03:44:55.734Z,69.23
2023-04-03T03:46:27.460Z,69.19
2023-04-03T03:47:59.368Z,69.09
2023-04-03T03:49:30.944Z,69.67
2023-04-03T03:51:02.573Z,69.07
2023-04-03T03:52:38.164Z,68.93
2023-04-03T03:54:10.841Z,68.72
2023-04-03T03:55:43.091Z,68.62
2023-04-03T03:57:15.972Z,68.26
2023-04-03T03:58:47.624Z,68.22
2023-04-03T04:00:19.694Z,68.75
2023-04-03T04:01:57.459Z,68.31
2023-04-03T04:03:29.156Z,68.74
2023-04-03T04:05:01.058Z,68.76
2023-04-03T04:06:32.696Z,69.02
2023-04-03T04:08:08.228Z,68.95
2023-04-03T04:09:39.856Z,69.49
2023-04-03T04:11:13.584Z,69.26
2023-04-03T04:12:46.119Z,68.72
2023-04-03T04:14:17.951Z,68.70
2023-04-03T04:15:49.640Z,69.12
2023-04-03T04:17:22.694Z,69.20
2023-04-03T04:18:54.837Z,69.23
2023-04-03T04:20:26.499Z,69.30
2023-04-03T04:21:58.686Z,69.28
2023-04-03T04:23:30.467Z,69.54
2023-04-03T04:25:04.183Z,69.58
2023-04-03T04:26:35.892Z,69.70
2023-04-03T04:28:07.733Z,70.12
2023-04-03T04:29:39.795Z,69.73
2023-04-03T04:31:13.020Z,69.83
2023-04-03T04:32:44.643Z,69.61
2023-04-03T04:34:16.641Z,69.67
2023-04-03T04:35:49.605Z,69.41
2023-04-03T04:37:22.975Z,69.11
2023-04-03T04:38:54.699Z,69.37
2023-04-03T04:40:28.397Z,69.67
2023-04-03T04:42:00.008Z,69.82
2023-04-03T04:43:34.160Z,69.58
2023-04-03T04:45:06.316Z,69.87
2023-04-03T04:46:38.090Z,70.00
2023-04-03T04:48:10.770Z,70.28
2023-04-03T04:49:42.489Z,69.88
2023-04-03T04:51:14.939Z,69.94
2023-04-03T04:52:46.917Z,69.31
2023-04-03T04:54:18.612Z,69.11
2023-04-03T04:55:53.517Z,69.62
2023-04-03T04:57:25.243Z,69.34
2023-04-03T04:58:57.030Z,68.78
2023-04-03T05:00:29.867Z,68.98
2023-04-03T05:02:01.639Z,69.85
2023-04-03T05:03:33.590Z,69.72
2023-04-03T05:05:05.780Z,69.51
2023-04-03T05:06:38.843Z,68.67
2023-04-03T05:08:14.882Z,68.91
2023-04-03T05:09:47.379Z,69.51
2023-04-03T05:11:21.306Z,68.43
2023-04-03T05:12:57.170Z,68.71
2023-04-03T05:14:28.763Z,68.74
2023-04-03T05:16:05.797Z,68.05
2023-04-03T05:17:37.810Z,68.36
2023-04-03T05:19:11.155Z,67.78
2023-04-03T05:20:44.498Z,68.36
2023-04-03T05:22:16.471Z,67.76
2023-04-03T05:23:48.062Z,68.40
2023-04-03T05:25:20.010Z,68.11
2023-04-03T05:26:52.288Z,68.06
2023-04-03T05:28:24.013Z,68.48
2023-04-03T05:29:56.336Z,68.40
2023-04-03T05:31:30.573Z,68.04
2023-04-03T05:33:02.852Z,67.74
2023-04-03T05:34:42.642Z,67.36
2023-04-03T05:36:14.312Z,66.52
2023-04-03T05:37:50.401Z,66.64
2023-04-03T05:39:23.304Z,65.86
2023-04-03T05:40:54.898Z,65.03
2023-04-03T05:42:26.648Z,65.00
2023-04-03T05:43:58.225Z,65.34
2023-04-03T05:45:31.442Z,65.25
2023-04-03T05:47:04.864Z,65.62
2023-04-03T05:48:36.451Z,64.69
2023-04-03T05:50:08.433Z,64.56
2023-04-03T05:51:41.337Z,63.99
2023-04-03T05:53:29.389Z,63.49
2023-04-03T05:55:05.106Z,64.32
2023-04-03T05:56:39.554Z,63.12
2023-04-03T05:58:11.825Z,62.82
2023-04-03T05:59:45.645Z,63.44
2023-04-03T06:01:17.335Z,63.04
2023-04-03T06:02:49.561Z,63.09
2023-04-03T06:04:25.849Z,62.98
2023-04-03T06:05:58.043Z,62.53
2023-04-03T06:07:29.968Z,62.54
2023-04-03T06:09:03.257Z,62.54
2023-04-03T06:10:35.929Z,60.97
2023-04-03T06:12:08.020Z,61.49
2023-04-03T06:13:40.257Z,61.34
2023-04-03T06:15:12.800Z,61.20
2023-04-03T06:16:46.506Z,62.03
2023-04-03T06:18:18.050Z,61.04
2023-04-03T06:19:49.727Z,60.99
2023-04-03T06:21:21.750Z,60.79
2023-04-03T06:22:53.260Z,60.40
2023-04-03T06:24:26.175Z,60.30
2023-04-03T06:25:57.931Z,61.08
2023-04-03T06:27:29.622Z,61.03
2023-04-03T06:29:01.414Z,58.87
2023-04-03T06:30:33.039Z,59.31
2023-04-03T06:32:04.755Z,60.32
2023-04-03T06:33:36.591Z,59.71
2023-04-03T06:35:09.507Z,58.78
2023-04-03T06:36:41.123Z,57.97
2023-04-03T06:38:12.841Z,57.98
2023-04-03T06:39:44.433Z,58.31
2023-04-03T06:41:17.411Z,58.52
2023-04-03T06:42:49.076Z,58.81
2023-04-03T06:44:22.870Z,58.91
2023-04-03T06:45:54.502Z,59.27
2023-04-03T06:47:26.220Z,58.95
2023-04-03T06:48:57.962Z,59.61
2023-04-03T06:50:29.634Z,59.62
2023-04-03T06:52:02.636Z,60.25
2023-04-03T06:53:34.454Z,59.81
2023-04-03T06:55:06.258Z,59.82
2023-04-03T06:56:38.357Z,59.15
2023-04-03T06:58:10.449Z,59.36
2023-04-03T06:59:42.314Z,59.69
2023-04-03T07:01:16.565Z,59.78
2023-04-03T07:02:48.315Z,60.23
2023-04-03T07:04:21.299Z,60.54
2023-04-03T07:05:53.051Z,60.45
2023-04-03T07:07:24.713Z,60.49
2023-04-03T07:08:56.642Z,60.43
2023-04-03T07:10:28.240Z,60.61
2023-04-03T07:11:59.809Z,60.36
2023-04-03T07:13:31.658Z,60.02
2023-04-03T07:15:04.215Z,59.52
2023-04-03T07:16:36.539Z,59.58
2023-04-03T07:18:08.298Z,59.95
2023-04-03T07:19:40.337Z,59.69
2023-04-03T07:21:11.937Z,59.11
2023-04-03T07:22:43.515Z,59.29
2023-04-03T07:24:16.735Z,57.94
2023-04-03T07:25:50.121Z,57.20
2023-04-03T07:27:21.663Z,56.69
2023-04-03T07:28:53.397Z,57.10
2023-04-03T07:30:25.056Z,56.50
2023-04-03T07:31:56.917Z,56.43
2023-04-03T07:33:29.071Z,56.69
2023-04-03T07:35:01.682Z,54.93
2023-04-03T07:36:34.417Z,55.79
2023-04-03T07:38:06.502Z,55.43
2023-04-03T07:39:38.113Z,54.74
2023-04-03T07:41:16.026Z,54.46
2023-04-03T07:42:47.594Z,53.24
2023-04-03T07:44:19.275Z,54.30
2023-04-03T07:45:51.862Z,52.89
2023-04-03T07:47:23.652Z,53.40
2023-04-03T07:48:56.694Z,53.74
2023-04-03T07:50:31.329Z,53.95
2023-04-03T07:52:03.490Z,53.41
2023-04-03T07:53:35.410Z,53.10
2023-04-03T07:55:07.638Z,53.37
2023-04-03T07:56:39.233Z,53.31
2023-04-03T07:58:16.621Z,52.38
2023-04-03T07:59:48.298Z,51.90
2023-04-03T08:01:20.042Z,50.77
2023-04-03T08:02:52.652Z,51.28
2023-04-03T08:04:24.827Z,50.98
2023-04-03T08:06:05.006Z,50.60
2023-04-03T08:07:38.570Z,50.80
2023-04-03T08:09:10.312Z,49.75
2023-04-03T08:10:42.233Z,50.89
2023-04-03T08:12:15.102Z,50.36
2023-04-03T08:13:47.176Z,49.83
2023-04-03T08:15:18.954Z,50.55
2023-04-03T08:16:50.800Z,50.90
2023-04-03T08:18:25.493Z,51.42
2023-04-03T08:19:57.049Z,52.08
2023-04-03T08:21:28.643Z,51.96
2023-04-03T08:23:00.324Z,52.13
2023-04-03T08:24:33.365Z,52.17
2023-04-03T08:26:13.705Z,52.33
2023-04-03T08:27:45.748Z,51.13
2023-04-03T08:29:17.752Z,51.68
2023-04-03T08:30:49.557Z,51.21
2023-04-03T08:32:21.423Z,49.31
2023-04-03T08:33:53.074Z,49.27
2023-04-03T08:35:24.772Z,50.60
2023-04-03T08:36:56.677Z,50.91
2023-04-03T08:38:28.435Z,50.85
2023-04-03T08:40:00.224Z,51.53
2023-04-03T08:43:32.349Z,51.28
2023-04-03T08:45:13.798Z,52.69
2023-04-03T08:46:45.430Z,52.51
2023-04-03T08:48:22.895Z,52.34
2023-04-03T08:49:58.564Z,52.12
2023-04-03T08:51:30.998Z,52.33
2023-04-03T08:53:06.122Z,52.11
2023-04-03T08:54:58.502Z,52.61
2023-04-03T08:56:32.312Z,52.75
2023-04-03T08:58:06.773Z,51.95
2023-04-03T08:59:40.554Z,51.75
2023-04-03T09:01:49.402Z,52.41
2023-04-03T09:03:22.697Z,52.93
2023-04-03T09:04:54.853Z,52.35
2023-04-03T09:06:34.058Z,52.92
2023-04-03T09:08:13.830Z,52.72
2023-04-03T09:09:47.151Z,52.93
2023-04-03T09:11:35.394Z,53.75
2023-04-03T09:13:42.191Z,52.90
2023-04-03T09:15:31.235Z,53.25
2023-04-03T09:17:29.030Z,50.75
2023-04-03T09:19:16.798Z,50.15
2023-04-03T09:20:57.851Z,50.90
2023-04-03T09:22:36.460Z,51.11
2023-04-03T09:24:14.853Z,51.11
2023-04-03T09:25:46.810Z,50.59
2023-04-03T09:27:18.544Z,50.50
2023-04-03T09:28:51.202Z,50.14
2023-04-03T09:30:25.288Z,51.38
2023-04-03T09:32:10.690Z,50.88
2023-04-03T09:33:42.509Z,50.45
2023-04-03T09:35:23.359Z,50.45
2023-04-03T09:37:06.763Z,48.16
2023-04-03T09:38:38.834Z,49.08
2023-04-03T09:40:30.680Z,49.29
2023-04-03T09:42:02.458Z,50.19
2023-04-03T09:43:39.596Z,49.98
2023-04-03T09:45:28.631Z,49.60
2023-04-03T09:47:18.129Z,49.55
2023-04-03T09:49:07.365Z,50.50
2023-04-03T09:51:02.440Z,51.23
2023-04-03T09:52:35.652Z,51.53
2023-04-03T09:54:39.462Z,52.11
2023-04-03T09:56:17.274Z,50.13
2023-04-03T09:57:52.148Z,49.95
2023-04-03T09:59:24.961Z,50.85
2023-04-03T10:00:59.737Z,51.27
2023-04-03T10:02:34.433Z,49.90
2023-04-03T10:04:13.690Z,49.35
2023-04-03T10:05:45.434Z,49.80
2023-04-03T10:07:36.277Z,50.09
2023-04-03T10:09:19.198Z,48.89
2023-04-03T10:11:08.563Z,49.63
2023-04-03T10:12:40.411Z,49.63
2023-04-03T10:14:17.990Z,48.10
2023-04-03T10:15:53.547Z,48.74
2023-04-03T10:17:46.700Z,49.19
2023-04-03T10:19:36.837Z,49.24
2023-04-03T10:21:27.204Z,49.09
2023-04-03T10:23:24.386Z,49.39
2023-04-03T10:25:19.437Z,49.11
2023-04-03T10:27:05.818Z,47.67
2023-04-03T10:29:10.013Z,47.59
2023-04-03T10:31:01.876Z,47.92
2023-04-03T10:32:42.336Z,48.02
2023-04-03T10:34:32.702Z,46.61
2023-04-03T10:36:31.529Z,47.59
2023-04-03T10:38:21.875Z,47.08
2023-04-03T10:40:16.446Z,47.59
2023-04-03T10:42:15.132Z,47.78
2023-04-03T10:44:13.244Z,47.64
2023-04-03T10:46:01.381Z,47.13
2023-04-03T10:47:47.740Z,47.13
2023-04-03T10:49:29.988Z,46.83
2023-04-03T10:51:09.206Z,46.10
2023-04-03T10:53:06.422Z,46.13
2023-04-03T10:54:43.306Z,46.00
2023-04-03T10:56:32.983Z,45.62
2023-04-03T10:58:07.053Z,45.80
2023-04-03T10:59:55.024Z,45.90
2023-04-03T11:01:33.936Z,45.78
2023-04-03T11:03:15.402Z,46.74
2023-04-03T11:04:53.183Z,46.49
2023-04-03T11:06:31.956Z,46.82
2023-04-03T11:08:11.572Z,46.36
2023-04-03T11:09:47.787Z,45.38
2023-04-03T11:11:28.308Z,45.17
2023-04-03T11:13:11.964Z,45.64
2023-04-03T11:14:44.537Z,45.31
2023-04-03T11:16:25.504Z,45.23
2023-04-03T11:18:12.756Z,45.47
2023-04-03T11:20:15.358Z,44.85
2023-04-03T11:21:54.133Z,45.25
2023-04-03T11:23:35.530Z,44.89
2023-04-03T11:25:20.844Z,44.35
2023-04-03T11:26:54.717Z,44.75
2023-04-03T11:28:26.302Z,43.74
2023-04-03T11:29:59.429Z,43.94
2023-04-03T11:31:49.391Z,44.58
2023-04-03T11:33:27.587Z,44.09
2023-04-03T11:35:02.598Z,43.85
2023-04-03T11:36:42.436Z,43.42
2023-04-03T11:38:44.547Z,43.27
2023-04-03T11:40:16.486Z,43.50
2023-04-03T11:41:48.324Z,43.99
2023-04-03T11:43:27.909Z,44.52
2023-04-03T11:45:32.224Z,43.54
2023-04-03T11:47:05.513Z,43.86
2023-04-03T11:48:37.073Z,43.90
2023-04-03T11:50:41.684Z,44.53
2023-04-03T11:52:13.427Z,44.19
2023-04-03T11:53:45.786Z,44.00
2023-04-03T11:55:20.441Z,43.13
2023-04-03T11:56:52.044Z,43.35
2023-04-03T11:58:29.357Z,43.95
2023-04-03T12:00:01.113Z,43.74
2023-04-03T12:02:04.197Z,43.95
2023-04-03T12:03:43.288Z,44.34
2023-04-03T12:05:31.525Z,45.11
2023-04-03T12:07:16.029Z,44.35
2023-04-03T12:08:53.824Z,44.91
2023-04-03T12:10:32.338Z,44.76
2023-04-03T12:12:35.540Z,44.71
2023-04-03T12:14:17.397Z,45.16
2023-04-03T12:15:52.349Z,45.36
2023-04-03T12:17:28.792Z,46.04
2023-04-03T12:19:05.668Z,45.87
2023-04-03T12:20:49.519Z,46.07
2023-04-03T12:22:22.807Z,45.84
2023-04-03T12:23:57.700Z,46.11
2023-04-03T12:25:50.879Z,45.82
2023-04-03T12:27:39.176Z,47.09
2023-04-03T12:29:20.571Z,47.45
2023-04-03T12:30:52.701Z,47.95
2023-04-03T12:32:37.428Z,47.07
2023-04-03T12:34:42.938Z,46.33
2023-04-03T12:36:24.679Z,45.68
2023-04-03T12:38:21.470Z,45.88
2023-04-03T12:40:01.741Z,45.34
2023-04-03T12:41:39.268Z,44.51
2023-04-03T12:43:15.892Z,45.61
2023-04-03T12:44:50.480Z,45.54
2023-04-03T12:46:24.390Z,45.33
2023-04-03T12:47:57.330Z,45.87
2023-04-03T12:49:41.033Z,44.50
2023-04-03T12:51:19.543Z,45.63
2023-04-03T12:52:59.863Z,44.80
2023-04-03T12:54:36.051Z,44.44
2023-04-03T12:56:24.864Z,43.71
2023-04-03T12:57:56.806Z,44.16
2023-04-03T12:59:28.732Z,43.80
2023-04-03T13:01:24.703Z,43.56
2023-04-03T13:02:56.893Z,44.38
2023-04-03T13:04:34.274Z,44.50
2023-04-03T13:06:06.721Z,44.39
2023-04-03T13:07:41.994Z,44.70
2023-04-03T13:09:31.795Z,44.25
2023-04-03T13:11:12.997Z,45.14
2023-04-03T13:12:59.400Z,43.83
2023-04-03T13:14:31.993Z,44.05
2023-04-03T13:16:14.749Z,44.27
2023-04-03T13:17:49.560Z,44.88
2023-04-03T13:19:23.103Z,43.58
2023-04-03T13:21:07.111Z,44.58
2023-04-03T13:22:54.940Z,43.32
2023-04-03T13:24:27.716Z,42.84
2023-04-03T13:26:04.438Z,43.64
2023-04-03T13:27:37.154Z,44.40
2023-04-03T13:29:30.038Z,44.12
2023-04-03T13:31:11.470Z,44.19
2023-04-03T13:32:45.157Z,43.96
2023-04-03T13:34:21.681Z,45.15
2023-04-03T13:36:05.253Z,44.82
2023-04-03T13:37:36.950Z,44.48
2023-04-03T13:39:11.517Z,44.62
2023-04-03T13:40:55.914Z,44.66
2023-04-03T13:42:31.671Z,44.02
2023-04-03T13:44:22.751Z,43.99
2023-04-03T13:46:11.167Z,44.98
2023-04-03T13:47:45.216Z,43.48
2023-04-03T13:49:29.788Z,43.62
2023-04-03T13:51:17.775Z,43.50
2023-04-03T13:53:12.051Z,44.21
2023-04-03T13:54:47.182Z,42.63
2023-04-03T13:56:32.520Z,42.90
2023-04-03T13:58:09.777Z,43.67
2023-04-03T13:59:42.451Z,43.64
2023-04-03T14:01:22.185Z,44.79
2023-04-03T14:02:57.454Z,43.94
2023-04-03T14:04:45.113Z,42.76
2023-04-03T14:06:18.245Z,42.66
2023-04-03T14:07:49.893Z,43.39
2023-04-03T14:09:23.703Z,43.34
2023-04-03T14:10:56.063Z,44.12
2023-04-03T14:12:31.448Z,43.52
2023-04-03T14:14:07.051Z,43.08
2023-04-03T14:15:38.879Z,43.94
2023-04-03T14:17:31.210Z,44.15
2023-04-03T14:19:02.925Z,44.70
2023-04-03T14:20:34.658Z,43.89
2023-04-03T14:22:18.417Z,43.83
2023-04-03T14:23:50.841Z,44.09
2023-04-03T14:25:24.832Z,44.21
2023-04-03T14:26:56.899Z,43.97
2023-04-03T14:28:28.723Z,44.46
2023-04-03T14:30:01.276Z,44.13
2023-04-03T14:31:33.029Z,43.07
2023-04-03T14:33:05.107Z,42.94
2023-04-03T14:34:36.932Z,42.83
2023-04-03T14:36:13.305Z,42.28
2023-04-03T14:37:46.143Z,42.75
2023-04-03T14:39:19.406Z,43.55
2023-04-03T14:40:51.560Z,41.85
2023-04-03T14:42:30.061Z,42.42
2023-04-03T14:44:01.845Z,42.86
2023-04-03T14:45:33.600Z,42.68
2023-04-03T14:47:06.976Z,43.12
2023-04-03T14:48:40.166Z,42.84
2023-04-03T14:50:17.072Z,43.35
2023-04-03T14:51:49.107Z,43.53
2023-04-03T14:53:37.849Z,43.18
2023-04-03T14:55:13.277Z,44.33
2023-04-03T14:56:45.668Z,44.03
2023-04-03T14:58:21.294Z,43.34
2023-04-03T14:59:53.781Z,43.66
2023-04-03T15:01:26.577Z,42.93
2023-04-03T15:02:58.469Z,43.93
2023-04-03T15:04:30.380Z,43.48
2023-04-03T15:06:02.375Z,43.76
2023-04-03T15:07:37.435Z,43.83
2023-04-03T15:09:29.320Z,43.63
2023-04-03T15:11:02.018Z,43.79
2023-04-03T15:12:33.975Z,43.79
2023-04-03T15:14:05.680Z,43.46
2023-04-03T15:15:38.256Z,43.84
2023-04-03T15:17:19.112Z,44.42
2023-04-03T15:18:51.206Z,44.37
2023-04-03T15:20:25.544Z,45.38
2023-04-03T15:21:57.219Z,44.77
2023-04-03T15:23:30.874Z,43.93
2023-04-03T15:25:02.602Z,44.77
2023-04-03T15:26:34.448Z,43.43
2023-04-03T15:28:07.344Z,43.35
2023-04-03T15:29:40.985Z,43.84
2023-04-03T15:31:12.771Z,42.93
2023-04-03T15:32:44.546Z,43.06
2023-04-03T15:34:17.092Z,42.88
2023-04-03T15:35:48.696Z,42.90
2023-04-03T15:37:20.428Z,43.00
2023-04-03T15:38:52.234Z,43.26
2023-04-03T15:40:23.831Z,42.53
2023-04-03T15:41:56.174Z,43.46
2023-04-03T15:43:28.017Z,43.10
2023-04-03T15:44:59.706Z,43.17
2023-04-03T15:46:31.668Z,43.62
2023-04-03T15:48:05.542Z,43.41
2023-04-03T15:49:37.632Z,43.00
2023-04-03T15:51:09.378Z,43.71
2023-04-03T15:52:40.970Z,43.87
2023-04-03T15:54:13.562Z,43.71
2023-04-03T15:55:45.390Z,43.99
2023-04-03T15:57:17.092Z,44.29
2023-04-03T15:58:48.783Z,44.49
2023-04-03T16:00:21.707Z,44.20
2023-04-03T16:01:54.012Z,44.58
2023-04-03T16:03:25.952Z,44.47
2023-04-03T16:04:57.674Z,44.74
2023-04-03T16:06:31.555Z,44.43
2023-04-03T16:08:04.088Z,45.03
2023-04-03T16:09:36.901Z,45.49
2023-04-03T16:11:09.216Z,44.40
2023-04-03T16:12:40.925Z,44.39
2023-04-03T16:14:12.670Z,44.73
2023-04-03T16:15:44.389Z,44.55
2023-04-03T16:17:16.265Z,44.24
2023-04-03T16:18:48.871Z,43.85
2023-04-03T16:20:22.549Z,43.42
2023-04-03T16:21:56.117Z,44.70
2023-04-03T16:23:27.789Z,43.62
2023-04-03T16:24:59.534Z,43.96
2023-04-03T16:26:31.244Z,43.28
2023-04-03T16:28:03.068Z,43.45
2023-04-03T16:29:34.764Z,43.45
2023-04-03T16:31:07.191Z,43.58
2023-04-03T16:32:40.198Z,43.43
2023-04-03T16:34:12.798Z,43.58
2023-04-03T16:35:45.063Z,43.79
2023-04-03T16:37:17.510Z,44.01
2023-04-03T16:38:49.222Z,43.35
2023-04-03T16:40:21.259Z,43.07
2023-04-03T16:41:52.974Z,43.34
2023-04-03T16:43:24.655Z,43.76
2023-04-03T16:44:56.261Z,43.25
2023-04-03T16:46:28.113Z,44.06
2023-04-03T16:48:00.397Z,43.73
2023-04-03T16:49:35.167Z,43.03
2023-04-03T16:51:06.928Z,44.41
2023-04-03T16:52:39.649Z,44.73
2023-04-03T16:54:12.917Z,44.04
2023-04-03T16:55:44.594Z,44.06
2023-04-03T16:57:16.361Z,43.98
2023-04-03T16:58:48.200Z,44.44
2023-04-03T17:00:20.219Z,44.98
2023-04-03T17:01:51.921Z,44.30
2023-04-03T17:03:26.572Z,44.40
2023-04-03T17:04:58.529Z,44.88
2023-04-03T17:06:30.296Z,44.60
2023-04-03T17:08:02.821Z,44.71
2023-04-03T17:09:35.177Z,44.94
2023-04-03T17:11:06.871Z,44.94
2023-04-03T17:12:38.493Z,45.23
2023-04-03T17:14:10.245Z,45.27
2023-04-03T17:15:42.173Z,45.47
2023-04-03T17:17:15.250Z,45.80
2023-04-03T17:18:48.365Z,45.23
2023-04-03T17:20:20.776Z,45.32
2023-04-03T17:21:52.800Z,44.95
2023-04-03T17:23:26.626Z,45.11
2023-04-03T17:24:59.016Z,45.87
2023-04-03T17:26:31.379Z,46.21
2023-04-03T17:28:03.101Z,45.77
2023-04-03T17:29:34.778Z,45.37
2023-04-03T17:31:06.995Z,46.07
2023-04-03T17:32:38.939Z,45.74
2023-04-03T17:34:12.676Z,45.65
2023-04-03T17:35:44.343Z,45.45
2023-04-03T17:37:16.097Z,45.26
2023-04-03T17:38:48.807Z,45.70
2023-04-03T17:40:20.575Z,47.02
2023-04-03T17:41:54.979Z,45.47
2023-04-03T17:43:27.813Z,45.77
2023-04-03T17:45:01.220Z,46.09
2023-04-03T17:46:34.780Z,45.91
2023-04-03T17:48:07.191Z,45.75
2023-04-03T17:49:38.908Z,46.64
2023-04-03T17:51:16.891Z,46.33
2023-04-03T17:52:48.704Z,46.20
2023-04-03T17:54:20.389Z,46.45
2023-04-03T17:55:52.014Z,46.98
2023-04-03T17:57:23.550Z,47.30
2023-04-03T17:58:56.786Z,46.82
2023-04-03T18:00:28.417Z,46.18
2023-04-03T18:02:00.148Z,46.26
2023-04-03T18:03:31.904Z,46.80
2023-04-03T18:05:03.956Z,47.25
2023-04-03T18:06:42.748Z,45.95
2023-04-03T18:08:14.293Z,46.21
2023-04-03T18:09:48.670Z,48.18
2023-04-03T18:11:23.191Z,48.33
2023-04-03T18:12:55.318Z,46.79
2023-04-03T18:14:28.016Z,47.19
2023-04-03T18:15:59.846Z,47.60
2023-04-03T18:17:31.759Z,47.48
2023-04-03T18:20:39.438Z,48.28
2023-04-03T18:22:17.368Z,47.86
2023-04-03T18:23:51.652Z,48.52
2023-04-03T18:25:23.458Z,47.35
2023-04-03T18:27:00.446Z,47.57
2023-04-03T18:28:32.446Z,47.34
2023-04-03T18:30:13.370Z,47.38
2023-04-03T18:31:49.995Z,47.15
2023-04-03T18:33:21.626Z,47.91
2023-04-03T18:34:53.345Z,48.13
2023-04-03T18:36:28.820Z,47.90
2023-04-03T18:38:00.551Z,47.72
2023-04-03T18:39:32.603Z,47.86
2023-04-03T18:41:07.564Z,48.22
2023-04-03T18:42:40.753Z,48.72
2023-04-03T18:44:17.706Z,48.58
2023-04-03T18:45:49.655Z,48.44
2023-04-03T18:47:21.432Z,48.74
2023-04-03T18:48:54.559Z,47.83
2023-04-03T18:50:26.472Z,48.19
2023-04-03T18:51:58.490Z,48.34
2023-04-03T18:53:30.252Z,48.26
2023-04-03T18:55:02.063Z,49.72
2023-04-03T18:56:33.698Z,48.50
2023-04-03T18:58:05.502Z,48.92
2023-04-03T18:59:37.955Z,49.16
2023-04-03T19:01:10.621Z,48.30
2023-04-03T19:02:43.008Z,48.18
2023-04-03T19:04:15.551Z,48.21
2023-04-03T19:05:47.449Z,48.83
2023-04-03T19:07:20.278Z,47.51
2023-04-03T19:08:52.082Z,48.89
2023-04-03T19:10:23.884Z,48.84
2023-04-03T19:11:55.545Z,48.44
2023-04-03T19:13:28.215Z,48.03
2023-04-03T19:15:00.261Z,47.76
2023-04-03T19:16:33.699Z,47.98
2023-04-03T19:18:05.736Z,47.91
2023-04-03T19:19:37.871Z,48.44
2023-04-03T19:21:09.713Z,48.28
2023-04-03T19:22:42.322Z,48.04
2023-04-03T19:24:14.282Z,48.14
2023-04-03T19:25:46.037Z,47.69
2023-04-03T19:27:17.732Z,47.95
2023-04-03T19:28:51.858Z,48.04
2023-04-03T19:30:24.808Z,48.26
2023-04-03T19:31:56.532Z,48.20
2023-04-03T19:33:28.870Z,48.57
2023-04-03T19:35:01.096Z,48.22
2023-04-03T19:36:34.383Z,48.88
2023-04-03T19:38:06.093Z,48.16
2023-04-03T19:39:38.542Z,48.44
2023-04-03T19:41:14.890Z,48.76
2023-04-03T19:42:46.730Z,48.23
2023-04-03T19:44:18.513Z,48.40
2023-04-03T19:45:50.402Z,49.47
2023-04-03T19:47:22.336Z,49.02
2023-04-03T19:48:54.476Z,49.66
2023-04-03T19:50:26.251Z,48.92
2023-04-03T19:51:57.907Z,49.52
2023-04-03T19:53:29.597Z,49.28
2023-04-03T19:55:01.252Z,49.14
2023-04-03T19:56:33.057Z,49.72
2023-04-03T19:58:04.836Z,49.34
2023-04-03T19:59:36.660Z,49.56
2023-04-03T20:01:08.859Z,48.75
2023-04-03T20:02:40.784Z,48.91
2023-04-03T20:04:12.638Z,49.17
2023-04-03T20:05:46.161Z,49.41
2023-04-03T20:07:17.872Z,49.29
2023-04-03T20:08:49.793Z,49.34
2023-04-03T20:10:21.796Z,49.42
2023-04-03T20:11:54.274Z,49.17
2023-04-03T20:13:26.122Z,49.75
2023-04-03T20:14:58.527Z,48.92
2023-04-03T20:16:30.666Z,49.17
2023-04-03T20:18:03.324Z,49.09
2023-04-03T20:19:35.419Z,49.70
2023-04-03T20:21:07.953Z,50.22
2023-04-03T20:22:39.968Z,49.55
2023-04-03T20:24:14.440Z,49.46
2023-04-03T20:26:01.516Z,49.56
2023-04-03T20:27:40.331Z,50.48
2023-04-03T20:29:14.696Z,49.91